sensor_id;sensor_type;location;lat;lon;timestamp;P1;durP1;ratioP1;P2;durP2;ratioP2
42662;SDS011;44330;51.360;6.686;2023-03-01T00:01:12;16.35;;;7.50;;
42662;SDS011;44330;51.360;6.686;2023-03-01T00:03:39;13.95;;;7.60;;
42662;SDS011;44330;51.360;6.686;2023-03-01T00:06:05;12.15;;;7.45;;
42662;SDS011;44330;51.360;6.686;2023-03-01T00:08:31;15.77;;;7.28;;
42662;SDS011;44330;51.360;6.686;2023-03-01T00:13:29;15.60;;;7.18;;
42662;SDS011;44330;51.360;6.686;2023-03-01T00:15:55;17.23;;;7.43;;
42662;SDS011;44330;51.360;6.686;2023-03-01T00:18:20;13.75;;;7.13;;
42662;SDS011;44330;51.360;6.686;2023-03-01T00:20:53;17.10;;;7.25;;
42662;SDS011;44330;51.360;6.686;2023-03-01T00:23:20;12.27;;;7.07;;
42662;SDS011;44330;51.360;6.686;2023-03-01T00:25:46;16.55;;;7.45;;
42662;SDS011;44330;51.360;6.686;2023-03-01T00:28:12;12.40;;;7.75;;
42662;SDS011;44330;51.360;6.686;2023-03-01T00:30:37;15.45;;;8.05;;
42662;SDS011;44330;51.360;6.686;2023-03-01T00:33:03;13.52;;;6.93;;
42662;SDS011;44330;51.360;6.686;2023-03-01T00:35:28;12.40;;;7.05;;
42662;SDS011;44330;51.360;6.686;2023-03-01T00:37:54;11.35;;;6.85;;
42662;SDS011;44330;51.360;6.686;2023-03-01T00:40:26;15.48;;;7.90;;
42662;SDS011;44330;51.360;6.686;2023-03-01T00:42:53;13.38;;;7.45;;
42662;SDS011;44330;51.360;6.686;2023-03-01T00:45:19;15.80;;;6.85;;
42662;SDS011;44330;51.360;6.686;2023-03-01T00:47:45;13.95;;;7.00;;
42662;SDS011;44330;51.360;6.686;2023-03-01T00:50:11;14.70;;;7.55;;
42662;SDS011;44330;51.360;6.686;2023-03-01T00:52:37;13.63;;;7.40;;
42662;SDS011;44330;51.360;6.686;2023-03-01T00:55:03;14.55;;;7.07;;
42662;SDS011;44330;51.360;6.686;2023-03-01T00:57:29;13.93;;;7.13;;
42662;SDS011;44330;51.360;6.686;2023-03-01T00:59:55;14.27;;;7.95;;
42662;SDS011;44330;51.360;6.686;2023-03-01T01:02:21;12.48;;;7.45;;
42662;SDS011;44330;51.360;6.686;2023-03-01T01:04:47;13.90;;;7.90;;
42662;SDS011;44330;51.360;6.686;2023-03-01T01:07:13;11.57;;;7.15;;
42662;SDS011;44330;51.360;6.686;2023-03-01T01:09:39;13.00;;;7.30;;
42662;SDS011;44330;51.360;6.686;2023-03-01T01:12:05;12.90;;;7.57;;
42662;SDS011;44330;51.360;6.686;2023-03-01T01:14:30;15.10;;;8.10;;
42662;SDS011;44330;51.360;6.686;2023-03-01T01:16:56;16.80;;;7.53;;
42662;SDS011;44330;51.360;6.686;2023-03-01T01:19:22;16.58;;;8.38;;
42662;SDS011;44330;51.360;6.686;2023-03-01T01:21:48;12.45;;;7.93;;
42662;SDS011;44330;51.360;6.686;2023-03-01T01:24:14;13.90;;;7.85;;
42662;SDS011;44330;51.360;6.686;2023-03-01T01:26:40;15.20;;;7.55;;
42662;SDS011;44330;51.360;6.686;2023-03-01T01:29:07;16.92;;;7.82;;
42662;SDS011;44330;51.360;6.686;2023-03-01T01:31:33;15.75;;;8.23;;
42662;SDS011;44330;51.360;6.686;2023-03-01T01:34:00;12.88;;;7.47;;
42662;SDS011;44330;51.360;6.686;2023-03-01T01:36:27;14.23;;;7.70;;
42662;SDS011;44330;51.360;6.686;2023-03-01T01:38:53;13.07;;;8.45;;
42662;SDS011;44330;51.360;6.686;2023-03-01T01:41:18;12.55;;;7.60;;
42662;SDS011;44330;51.360;6.686;2023-03-01T01:44:28;16.13;;;8.35;;
42662;SDS011;44330;51.360;6.686;2023-03-01T01:46:35;15.13;;;8.00;;
42662;SDS011;44330;51.360;6.686;2023-03-01T01:49:58;18.13;;;8.30;;
42662;SDS011;44330;51.360;6.686;2023-03-01T01:52:13;13.18;;;7.82;;
42662;SDS011;44330;51.360;6.686;2023-03-01T01:55:09;16.55;;;8.48;;
42662;SDS011;44330;51.360;6.686;2023-03-01T02:00:26;19.88;;;8.60;;
42662;SDS011;44330;51.360;6.686;2023-03-01T02:02:55;13.68;;;8.45;;
42662;SDS011;44330;51.360;6.686;2023-03-01T02:07:59;20.30;;;8.65;;
42662;SDS011;44330;51.360;6.686;2023-03-01T02:10:25;15.80;;;8.98;;
42662;SDS011;44330;51.360;6.686;2023-03-01T02:12:52;22.40;;;8.70;;
42662;SDS011;44330;51.360;6.686;2023-03-01T02:15:18;16.63;;;8.70;;
42662;SDS011;44330;51.360;6.686;2023-03-01T02:17:44;15.80;;;8.10;;
42662;SDS011;44330;51.360;6.686;2023-03-01T02:20:14;15.63;;;8.43;;
42662;SDS011;44330;51.360;6.686;2023-03-01T02:22:41;16.73;;;8.63;;
42662;SDS011;44330;51.360;6.686;2023-03-01T02:25:12;14.90;;;8.93;;
42662;SDS011;44330;51.360;6.686;2023-03-01T02:28:08;13.88;;;8.05;;
42662;SDS011;44330;51.360;6.686;2023-03-01T02:30:40;14.15;;;8.00;;
42662;SDS011;44330;51.360;6.686;2023-03-01T02:33:26;15.57;;;8.48;;
42662;SDS011;44330;51.360;6.686;2023-03-01T02:35:53;18.67;;;8.52;;
42662;SDS011;44330;51.360;6.686;2023-03-01T02:38:20;19.08;;;9.95;;
42662;SDS011;44330;51.360;6.686;2023-03-01T02:40:48;17.70;;;8.65;;
42662;SDS011;44330;51.360;6.686;2023-03-01T02:43:15;17.10;;;9.85;;
42662;SDS011;44330;51.360;6.686;2023-03-01T02:45:47;21.27;;;9.48;;
42662;SDS011;44330;51.360;6.686;2023-03-01T02:48:15;17.60;;;9.57;;
42662;SDS011;44330;51.360;6.686;2023-03-01T02:53:16;13.23;;;7.25;;
42662;SDS011;44330;51.360;6.686;2023-03-01T02:55:45;19.27;;;10.48;;
42662;SDS011;44330;51.360;6.686;2023-03-01T02:58:10;24.35;;;9.80;;
42662;SDS011;44330;51.360;6.686;2023-03-01T03:00:37;17.63;;;9.85;;
42662;SDS011;44330;51.360;6.686;2023-03-01T03:03:10;21.50;;;10.13;;
42662;SDS011;44330;51.360;6.686;2023-03-01T03:05:39;28.02;;;12.02;;
42662;SDS011;44330;51.360;6.686;2023-03-01T03:08:05;16.98;;;9.00;;
42662;SDS011;44330;51.360;6.686;2023-03-01T03:10:34;18.70;;;9.35;;
42662;SDS011;44330;51.360;6.686;2023-03-01T03:15:34;18.05;;;8.50;;
42662;SDS011;44330;51.360;6.686;2023-03-01T03:18:04;18.58;;;9.35;;
42662;SDS011;44330;51.360;6.686;2023-03-01T03:20:32;20.58;;;10.35;;
42662;SDS011;44330;51.360;6.686;2023-03-01T03:22:58;15.38;;;9.15;;
42662;SDS011;44330;51.360;6.686;2023-03-01T03:25:23;17.10;;;7.95;;
42662;SDS011;44330;51.360;6.686;2023-03-01T03:27:50;19.15;;;9.73;;
42662;SDS011;44330;51.360;6.686;2023-03-01T03:30:22;16.85;;;8.93;;
42662;SDS011;44330;51.360;6.686;2023-03-01T03:32:52;19.55;;;9.52;;
42662;SDS011;44330;51.360;6.686;2023-03-01T03:35:19;18.55;;;9.32;;
42662;SDS011;44330;51.360;6.686;2023-03-01T03:37:50;16.35;;;9.30;;
42662;SDS011;44330;51.360;6.686;2023-03-01T03:40:39;17.75;;;9.75;;
42662;SDS011;44330;51.360;6.686;2023-03-01T03:43:17;20.65;;;9.40;;
42662;SDS011;44330;51.360;6.686;2023-03-01T03:45:45;15.80;;;8.80;;
42662;SDS011;44330;51.360;6.686;2023-03-01T03:48:11;20.70;;;9.48;;
42662;SDS011;44330;51.360;6.686;2023-03-01T03:50:37;15.07;;;8.48;;
42662;SDS011;44330;51.360;6.686;2023-03-01T03:53:05;16.27;;;9.02;;
42662;SDS011;44330;51.360;6.686;2023-03-01T03:55:34;18.15;;;9.70;;
42662;SDS011;44330;51.360;6.686;2023-03-01T03:58:00;17.98;;;8.93;;
42662;SDS011;44330;51.360;6.686;2023-03-01T04:00:31;17.05;;;8.60;;
42662;SDS011;44330;51.360;6.686;2023-03-01T04:02:58;19.35;;;8.93;;
42662;SDS011;44330;51.360;6.686;2023-03-01T04:05:25;16.13;;;9.15;;
42662;SDS011;44330;51.360;6.686;2023-03-01T04:07:51;15.07;;;9.30;;
42662;SDS011;44330;51.360;6.686;2023-03-01T04:10:27;16.98;;;9.23;;
42662;SDS011;44330;51.360;6.686;2023-03-01T04:12:53;15.73;;;9.45;;
42662;SDS011;44330;51.360;6.686;2023-03-01T04:15:21;15.85;;;9.45;;
42662;SDS011;44330;51.360;6.686;2023-03-01T04:17:49;17.13;;;9.25;;
42662;SDS011;44330;51.360;6.686;2023-03-01T04:20:17;16.73;;;9.43;;
42662;SDS011;44330;51.360;6.686;2023-03-01T04:22:50;16.65;;;9.00;;
42662;SDS011;44330;51.360;6.686;2023-03-01T04:25:17;19.35;;;9.63;;
42662;SDS011;44330;51.360;6.686;2023-03-01T04:27:42;21.35;;;9.57;;
42662;SDS011;44330;51.360;6.686;2023-03-01T04:30:08;18.83;;;9.35;;
42662;SDS011;44330;51.360;6.686;2023-03-01T04:32:34;20.10;;;9.93;;
42662;SDS011;44330;51.360;6.686;2023-03-01T04:35:00;16.67;;;9.38;;
42662;SDS011;44330;51.360;6.686;2023-03-01T04:37:26;20.88;;;9.40;;
42662;SDS011;44330;51.360;6.686;2023-03-01T04:39:51;18.40;;;9.90;;
42662;SDS011;44330;51.360;6.686;2023-03-01T04:42:17;18.38;;;9.82;;
42662;SDS011;44330;51.360;6.686;2023-03-01T04:44:43;17.88;;;9.85;;
42662;SDS011;44330;51.360;6.686;2023-03-01T04:47:12;22.10;;;10.00;;
42662;SDS011;44330;51.360;6.686;2023-03-01T04:49:38;18.35;;;9.73;;
42662;SDS011;44330;51.360;6.686;2023-03-01T04:52:04;21.45;;;9.25;;
42662;SDS011;44330;51.360;6.686;2023-03-01T04:54:31;16.50;;;9.80;;
42662;SDS011;44330;51.360;6.686;2023-03-01T04:56:57;21.92;;;10.13;;
42662;SDS011;44330;51.360;6.686;2023-03-01T04:59:23;16.02;;;8.68;;
42662;SDS011;44330;51.360;6.686;2023-03-01T05:01:49;20.08;;;9.50;;
42662;SDS011;44330;51.360;6.686;2023-03-01T05:04:20;19.85;;;9.60;;
42662;SDS011;44330;51.360;6.686;2023-03-01T05:06:46;19.00;;;9.73;;
42662;SDS011;44330;51.360;6.686;2023-03-01T05:09:12;23.90;;;9.38;;
42662;SDS011;44330;51.360;6.686;2023-03-01T05:11:37;17.10;;;9.30;;
42662;SDS011;44330;51.360;6.686;2023-03-01T05:14:06;19.35;;;10.38;;
42662;SDS011;44330;51.360;6.686;2023-03-01T05:16:33;21.25;;;8.85;;
42662;SDS011;44330;51.360;6.686;2023-03-01T05:18:59;17.70;;;10.15;;
42662;SDS011;44330;51.360;6.686;2023-03-01T05:21:25;18.38;;;10.07;;
42662;SDS011;44330;51.360;6.686;2023-03-01T05:23:51;21.25;;;10.73;;
42662;SDS011;44330;51.360;6.686;2023-03-01T05:26:18;22.05;;;9.90;;
42662;SDS011;44330;51.360;6.686;2023-03-01T05:28:44;22.70;;;10.65;;
42662;SDS011;44330;51.360;6.686;2023-03-01T05:31:10;18.77;;;9.73;;
42662;SDS011;44330;51.360;6.686;2023-03-01T05:33:36;18.08;;;10.30;;
42662;SDS011;44330;51.360;6.686;2023-03-01T05:36:03;17.70;;;9.70;;
42662;SDS011;44330;51.360;6.686;2023-03-01T05:38:29;20.15;;;10.75;;
42662;SDS011;44330;51.360;6.686;2023-03-01T05:40:54;22.52;;;10.25;;
42662;SDS011;44330;51.360;6.686;2023-03-01T05:43:20;16.75;;;9.20;;
42662;SDS011;44330;51.360;6.686;2023-03-01T05:45:46;19.80;;;9.93;;
42662;SDS011;44330;51.360;6.686;2023-03-01T05:48:12;16.48;;;9.98;;
42662;SDS011;44330;51.360;6.686;2023-03-01T05:50:40;23.45;;;10.35;;
42662;SDS011;44330;51.360;6.686;2023-03-01T05:53:13;23.20;;;10.23;;
42662;SDS011;44330;51.360;6.686;2023-03-01T05:55:46;20.23;;;10.02;;
42662;SDS011;44330;51.360;6.686;2023-03-01T05:58:19;20.63;;;10.77;;
42662;SDS011;44330;51.360;6.686;2023-03-01T06:00:45;26.15;;;11.68;;
42662;SDS011;44330;51.360;6.686;2023-03-01T06:03:13;19.10;;;10.80;;
42662;SDS011;44330;51.360;6.686;2023-03-01T06:05:41;20.35;;;10.45;;
42662;SDS011;44330;51.360;6.686;2023-03-01T06:08:08;34.97;;;12.15;;
42662;SDS011;44330;51.360;6.686;2023-03-01T06:10:35;26.45;;;12.15;;
42662;SDS011;44330;51.360;6.686;2023-03-01T06:13:00;34.78;;;13.00;;
42662;SDS011;44330;51.360;6.686;2023-03-01T06:15:26;32.50;;;12.63;;
42662;SDS011;44330;51.360;6.686;2023-03-01T06:17:53;30.45;;;11.38;;
42662;SDS011;44330;51.360;6.686;2023-03-01T06:20:22;29.70;;;11.73;;
42662;SDS011;44330;51.360;6.686;2023-03-01T06:22:49;33.17;;;13.38;;
42662;SDS011;44330;51.360;6.686;2023-03-01T06:25:16;27.05;;;11.82;;
42662;SDS011;44330;51.360;6.686;2023-03-01T06:27:44;27.08;;;11.98;;
42662;SDS011;44330;51.360;6.686;2023-03-01T06:30:10;39.33;;;14.25;;
42662;SDS011;44330;51.360;6.686;2023-03-01T06:32:38;37.45;;;15.60;;
42662;SDS011;44330;51.360;6.686;2023-03-01T06:35:11;19.90;;;10.20;;
42662;SDS011;44330;51.360;6.686;2023-03-01T06:37:39;19.80;;;9.55;;
42662;SDS011;44330;51.360;6.686;2023-03-01T06:40:06;25.25;;;11.45;;
42662;SDS011;44330;51.360;6.686;2023-03-01T06:42:33;30.30;;;12.30;;
42662;SDS011;44330;51.360;6.686;2023-03-01T06:45:00;46.97;;;13.55;;
42662;SDS011;44330;51.360;6.686;2023-03-01T06:47:26;38.35;;;13.15;;
42662;SDS011;44330;51.360;6.686;2023-03-01T06:49:51;33.75;;;14.05;;
42662;SDS011;44330;51.360;6.686;2023-03-01T06:52:17;67.03;;;22.80;;
42662;SDS011;44330;51.360;6.686;2023-03-01T06:54:42;72.45;;;24.20;;
42662;SDS011;44330;51.360;6.686;2023-03-01T06:57:08;57.97;;;21.05;;
42662;SDS011;44330;51.360;6.686;2023-03-01T06:59:33;39.90;;;14.45;;
42662;SDS011;44330;51.360;6.686;2023-03-01T07:01:59;36.55;;;14.07;;
42662;SDS011;44330;51.360;6.686;2023-03-01T07:04:24;35.25;;;15.48;;
42662;SDS011;44330;51.360;6.686;2023-03-01T07:06:53;44.58;;;15.48;;
42662;SDS011;44330;51.360;6.686;2023-03-01T07:09:20;37.88;;;15.02;;
42662;SDS011;44330;51.360;6.686;2023-03-01T07:11:47;65.10;;;21.60;;
42662;SDS011;44330;51.360;6.686;2023-03-01T07:14:13;55.70;;;20.75;;
42662;SDS011;44330;51.360;6.686;2023-03-01T07:16:38;42.03;;;15.05;;
42662;SDS011;44330;51.360;6.686;2023-03-01T07:19:04;41.47;;;13.70;;
42662;SDS011;44330;51.360;6.686;2023-03-01T07:21:30;48.15;;;16.90;;
42662;SDS011;44330;51.360;6.686;2023-03-01T07:23:56;73.68;;;24.40;;
42662;SDS011;44330;51.360;6.686;2023-03-01T07:26:22;54.17;;;18.25;;
42662;SDS011;44330;51.360;6.686;2023-03-01T07:28:47;51.13;;;16.92;;
42662;SDS011;44330;51.360;6.686;2023-03-01T07:31:13;44.85;;;15.63;;
42662;SDS011;44330;51.360;6.686;2023-03-01T07:33:39;44.63;;;16.10;;
42662;SDS011;44330;51.360;6.686;2023-03-01T07:36:04;33.38;;;13.27;;
42662;SDS011;44330;51.360;6.686;2023-03-01T07:38:31;30.50;;;13.68;;
42662;SDS011;44330;51.360;6.686;2023-03-01T07:40:58;28.08;;;12.60;;
42662;SDS011;44330;51.360;6.686;2023-03-01T07:43:25;19.38;;;10.50;;
42662;SDS011;44330;51.360;6.686;2023-03-01T07:45:50;22.25;;;11.65;;
42662;SDS011;44330;51.360;6.686;2023-03-01T07:48:16;47.53;;;16.52;;
42662;SDS011;44330;51.360;6.686;2023-03-01T07:50:42;32.80;;;13.10;;
42662;SDS011;44330;51.360;6.686;2023-03-01T07:53:08;26.95;;;11.30;;
42662;SDS011;44330;51.360;6.686;2023-03-01T07:55:34;25.40;;;10.98;;
42662;SDS011;44330;51.360;6.686;2023-03-01T07:57:59;22.98;;;11.95;;
42662;SDS011;44330;51.360;6.686;2023-03-01T08:00:25;30.05;;;13.02;;
42662;SDS011;44330;51.360;6.686;2023-03-01T08:02:51;33.47;;;13.52;;
42662;SDS011;44330;51.360;6.686;2023-03-01T08:05:16;36.65;;;13.85;;
42662;SDS011;44330;51.360;6.686;2023-03-01T08:07:42;42.28;;;17.80;;
42662;SDS011;44330;51.360;6.686;2023-03-01T08:10:07;48.80;;;17.58;;
42662;SDS011;44330;51.360;6.686;2023-03-01T08:12:34;41.72;;;14.55;;
42662;SDS011;44330;51.360;6.686;2023-03-01T08:14:59;31.90;;;12.35;;
42662;SDS011;44330;51.360;6.686;2023-03-01T08:17:25;24.10;;;9.80;;
42662;SDS011;44330;51.360;6.686;2023-03-01T08:19:50;17.15;;;9.18;;
42662;SDS011;44330;51.360;6.686;2023-03-01T08:22:16;25.23;;;10.75;;
42662;SDS011;44330;51.360;6.686;2023-03-01T08:24:42;40.95;;;12.10;;
42662;SDS011;44330;51.360;6.686;2023-03-01T08:27:07;24.50;;;10.38;;
42662;SDS011;44330;51.360;6.686;2023-03-01T08:29:33;38.03;;;11.25;;
42662;SDS011;44330;51.360;6.686;2023-03-01T08:31:59;28.42;;;10.10;;
42662;SDS011;44330;51.360;6.686;2023-03-01T08:34:25;27.20;;;10.65;;
42662;SDS011;44330;51.360;6.686;2023-03-01T08:36:51;24.75;;;9.85;;
42662;SDS011;44330;51.360;6.686;2023-03-01T08:39:17;18.48;;;8.85;;
42662;SDS011;44330;51.360;6.686;2023-03-01T08:41:45;21.27;;;9.52;;
42662;SDS011;44330;51.360;6.686;2023-03-01T08:44:11;47.08;;;16.95;;
42662;SDS011;44330;51.360;6.686;2023-03-01T08:46:39;47.67;;;15.90;;
42662;SDS011;44330;51.360;6.686;2023-03-01T08:49:12;28.55;;;10.63;;
42662;SDS011;44330;51.360;6.686;2023-03-01T08:51:42;35.92;;;12.75;;
42662;SDS011;44330;51.360;6.686;2023-03-01T08:54:10;36.60;;;11.85;;
42662;SDS011;44330;51.360;6.686;2023-03-01T08:56:38;34.78;;;11.75;;
42662;SDS011;44330;51.360;6.686;2023-03-01T08:59:04;24.88;;;10.88;;
42662;SDS011;44330;51.360;6.686;2023-03-01T09:01:29;21.38;;;9.32;;
42662;SDS011;44330;51.360;6.686;2023-03-01T09:03:55;18.35;;;9.27;;
42662;SDS011;44330;51.360;6.686;2023-03-01T09:06:21;20.50;;;10.25;;
42662;SDS011;44330;51.360;6.686;2023-03-01T09:08:47;17.83;;;8.55;;
42662;SDS011;44330;51.360;6.686;2023-03-01T09:11:15;16.05;;;7.78;;
42662;SDS011;44330;51.360;6.686;2023-03-01T09:13:46;20.85;;;8.50;;
42662;SDS011;44330;51.360;6.686;2023-03-01T09:16:13;14.73;;;7.53;;
42662;SDS011;44330;51.360;6.686;2023-03-01T09:18:40;14.63;;;7.55;;
42662;SDS011;44330;51.360;6.686;2023-03-01T09:21:07;19.70;;;7.38;;
42662;SDS011;44330;51.360;6.686;2023-03-01T09:23:38;18.90;;;8.03;;
42662;SDS011;44330;51.360;6.686;2023-03-01T09:26:05;17.05;;;8.20;;
42662;SDS011;44330;51.360;6.686;2023-03-01T09:28:32;14.60;;;7.72;;
42662;SDS011;44330;51.360;6.686;2023-03-01T09:30:58;12.77;;;6.57;;
42662;SDS011;44330;51.360;6.686;2023-03-01T09:33:24;15.02;;;7.93;;
42662;SDS011;44330;51.360;6.686;2023-03-01T09:35:55;14.00;;;7.45;;
42662;SDS011;44330;51.360;6.686;2023-03-01T09:38:21;13.45;;;7.57;;
42662;SDS011;44330;51.360;6.686;2023-03-01T09:40:47;24.88;;;10.77;;
42662;SDS011;44330;51.360;6.686;2023-03-01T09:43:59;16.05;;;8.18;;
42662;SDS011;44330;51.360;6.686;2023-03-01T09:46:05;13.45;;;8.00;;
42662;SDS011;44330;51.360;6.686;2023-03-01T09:48:38;14.52;;;7.60;;
42662;SDS011;44330;51.360;6.686;2023-03-01T09:51:15;17.70;;;8.32;;
42662;SDS011;44330;51.360;6.686;2023-03-01T10:02:51;33.08;;;11.27;;
42662;SDS011;44330;51.360;6.686;2023-03-01T10:05:33;15.48;;;8.45;;
42662;SDS011;44330;51.360;6.686;2023-03-01T10:11:13;19.73;;;8.85;;
42662;SDS011;44330;51.360;6.686;2023-03-01T10:13:47;23.77;;;8.88;;
42662;SDS011;44330;51.360;6.686;2023-03-01T10:16:28;15.30;;;7.65;;
42662;SDS011;44330;51.360;6.686;2023-03-01T10:19:01;16.05;;;8.23;;
42662;SDS011;44330;51.360;6.686;2023-03-01T10:21:29;22.73;;;11.23;;
42662;SDS011;44330;51.360;6.686;2023-03-01T10:23:56;34.55;;;14.15;;
42662;SDS011;44330;51.360;6.686;2023-03-01T10:26:40;26.00;;;10.88;;
42662;SDS011;44330;51.360;6.686;2023-03-01T10:29:12;15.88;;;7.93;;
42662;SDS011;44330;51.360;6.686;2023-03-01T10:31:48;17.15;;;7.93;;
42662;SDS011;44330;51.360;6.686;2023-03-01T10:34:17;16.63;;;8.48;;
42662;SDS011;44330;51.360;6.686;2023-03-01T10:36:45;19.27;;;8.15;;
42662;SDS011;44330;51.360;6.686;2023-03-01T10:39:17;17.35;;;8.35;;
42662;SDS011;44330;51.360;6.686;2023-03-01T10:42:03;30.38;;;12.70;;
42662;SDS011;44330;51.360;6.686;2023-03-01T10:44:43;19.40;;;8.90;;
42662;SDS011;44330;51.360;6.686;2023-03-01T10:47:15;12.32;;;6.82;;
42662;SDS011;44330;51.360;6.686;2023-03-01T10:52:43;14.10;;;7.03;;
42662;SDS011;44330;51.360;6.686;2023-03-01T10:55:37;16.58;;;7.03;;
42662;SDS011;44330;51.360;6.686;2023-03-01T10:58:09;15.20;;;7.45;;
42662;SDS011;44330;51.360;6.686;2023-03-01T11:00:51;15.32;;;6.72;;
42662;SDS011;44330;51.360;6.686;2023-03-01T11:03:29;13.00;;;6.63;;
42662;SDS011;44330;51.360;6.686;2023-03-01T11:05:58;11.38;;;6.68;;
42662;SDS011;44330;51.360;6.686;2023-03-01T11:11:43;11.63;;;7.03;;
42662;SDS011;44330;51.360;6.686;2023-03-01T11:16:44;13.75;;;7.00;;
42662;SDS011;44330;51.360;6.686;2023-03-01T11:21:37;14.38;;;7.07;;
42662;SDS011;44330;51.360;6.686;2023-03-01T11:24:12;13.45;;;6.80;;
42662;SDS011;44330;51.360;6.686;2023-03-01T11:26:41;14.55;;;6.97;;
42662;SDS011;44330;51.360;6.686;2023-03-01T11:29:21;13.20;;;7.10;;
42662;SDS011;44330;51.360;6.686;2023-03-01T11:32:02;11.55;;;6.13;;
42662;SDS011;44330;51.360;6.686;2023-03-01T11:34:35;9.93;;;6.32;;
42662;SDS011;44330;51.360;6.686;2023-03-01T11:37:21;10.43;;;6.15;;
42662;SDS011;44330;51.360;6.686;2023-03-01T11:42:42;23.38;;;9.38;;
42662;SDS011;44330;51.360;6.686;2023-03-01T11:45:11;16.70;;;7.90;;
42662;SDS011;44330;51.360;6.686;2023-03-01T11:47:41;13.60;;;7.47;;
42662;SDS011;44330;51.360;6.686;2023-03-01T12:01:12;14.40;;;6.63;;
42662;SDS011;44330;51.360;6.686;2023-03-01T12:09:21;11.75;;;6.32;;
42662;SDS011;44330;51.360;6.686;2023-03-01T12:22:29;9.40;;;5.38;;
42662;SDS011;44330;51.360;6.686;2023-03-01T12:31:23;12.38;;;6.80;;
42662;SDS011;44330;51.360;6.686;2023-03-01T12:34:16;15.73;;;6.28;;
42662;SDS011;44330;51.360;6.686;2023-03-01T12:39:38;9.85;;;5.60;;
42662;SDS011;44330;51.360;6.686;2023-03-01T12:48:15;9.85;;;5.75;;
42662;SDS011;44330;51.360;6.686;2023-03-01T12:51:07;10.73;;;5.35;;
42662;SDS011;44330;51.360;6.686;2023-03-01T12:53:41;10.38;;;5.70;;
42662;SDS011;44330;51.360;6.686;2023-03-01T12:56:20;13.87;;;5.27;;
42662;SDS011;44330;51.360;6.686;2023-03-01T12:58:53;7.13;;;4.47;;
42662;SDS011;44330;51.360;6.686;2023-03-01T13:01:49;6.88;;;4.50;;
42662;SDS011;44330;51.360;6.686;2023-03-01T13:17:47;22.33;;;7.95;;
42662;SDS011;44330;51.360;6.686;2023-03-01T13:20:19;17.67;;;8.27;;
42662;SDS011;44330;51.360;6.686;2023-03-01T13:22:46;14.88;;;5.68;;
42662;SDS011;44330;51.360;6.686;2023-03-01T13:25:18;10.40;;;6.28;;
42662;SDS011;44330;51.360;6.686;2023-03-01T13:27:47;14.35;;;6.68;;
42662;SDS011;44330;51.360;6.686;2023-03-01T13:35:52;10.80;;;6.00;;
42662;SDS011;44330;51.360;6.686;2023-03-01T13:41:08;12.48;;;6.22;;
42662;SDS011;44330;51.360;6.686;2023-03-01T13:43:35;19.83;;;7.03;;
42662;SDS011;44330;51.360;6.686;2023-03-01T13:46:07;10.60;;;6.50;;
42662;SDS011;44330;51.360;6.686;2023-03-01T13:48:47;17.17;;;6.97;;
42662;SDS011;44330;51.360;6.686;2023-03-01T13:51:21;13.60;;;6.55;;
42662;SDS011;44330;51.360;6.686;2023-03-01T13:53:50;15.05;;;6.90;;
42662;SDS011;44330;51.360;6.686;2023-03-01T14:01:40;9.45;;;5.78;;
42662;SDS011;44330;51.360;6.686;2023-03-01T14:06:43;12.50;;;6.40;;
42662;SDS011;44330;51.360;6.686;2023-03-01T14:09:10;9.40;;;5.68;;
42662;SDS011;44330;51.360;6.686;2023-03-01T14:17:20;15.45;;;7.35;;
42662;SDS011;44330;51.360;6.686;2023-03-01T14:20:11;17.45;;;7.88;;
42662;SDS011;44330;51.360;6.686;2023-03-01T14:22:42;18.13;;;6.88;;
42662;SDS011;44330;51.360;6.686;2023-03-01T14:25:21;14.88;;;6.50;;
42662;SDS011;44330;51.360;6.686;2023-03-01T14:32:54;15.45;;;7.07;;
42662;SDS011;44330;51.360;6.686;2023-03-01T14:37:53;16.55;;;6.53;;
42662;SDS011;44330;51.360;6.686;2023-03-01T14:40:20;11.93;;;6.43;;
42662;SDS011;44330;51.360;6.686;2023-03-01T14:42:48;12.27;;;6.13;;
42662;SDS011;44330;51.360;6.686;2023-03-01T14:45:14;11.90;;;6.47;;
42662;SDS011;44330;51.360;6.686;2023-03-01T14:47:40;16.02;;;6.70;;
42662;SDS011;44330;51.360;6.686;2023-03-01T14:50:16;14.73;;;7.28;;
42662;SDS011;44330;51.360;6.686;2023-03-01T14:52:56;14.00;;;6.45;;
42662;SDS011;44330;51.360;6.686;2023-03-01T14:55:25;31.08;;;11.32;;
42662;SDS011;44330;51.360;6.686;2023-03-01T14:57:52;23.95;;;9.15;;
42662;SDS011;44330;51.360;6.686;2023-03-01T15:00:19;17.67;;;8.75;;
42662;SDS011;44330;51.360;6.686;2023-03-01T15:05:14;13.23;;;6.07;;
42662;SDS011;44330;51.360;6.686;2023-03-01T15:07:43;11.40;;;6.60;;
42662;SDS011;44330;51.360;6.686;2023-03-01T15:10:24;20.15;;;8.45;;
42662;SDS011;44330;51.360;6.686;2023-03-01T15:12:52;17.88;;;9.25;;
42662;SDS011;44330;51.360;6.686;2023-03-01T15:18:14;12.32;;;7.00;;
42662;SDS011;44330;51.360;6.686;2023-03-01T15:20:45;14.10;;;7.13;;
42662;SDS011;44330;51.360;6.686;2023-03-01T15:23:20;15.45;;;7.43;;
42662;SDS011;44330;51.360;6.686;2023-03-01T15:25:46;20.63;;;7.53;;
42662;SDS011;44330;51.360;6.686;2023-03-01T15:28:19;27.05;;;11.02;;
42662;SDS011;44330;51.360;6.686;2023-03-01T15:30:45;13.93;;;7.97;;
42662;SDS011;44330;51.360;6.686;2023-03-01T15:35:51;23.88;;;9.48;;
42662;SDS011;44330;51.360;6.686;2023-03-01T15:38:49;23.15;;;8.45;;
42662;SDS011;44330;51.360;6.686;2023-03-01T15:44:00;13.32;;;6.60;;
42662;SDS011;44330;51.360;6.686;2023-03-01T15:46:44;13.25;;;7.47;;
42662;SDS011;44330;51.360;6.686;2023-03-01T15:49:30;13.48;;;7.07;;
42662;SDS011;44330;51.360;6.686;2023-03-01T15:52:12;13.90;;;7.00;;
42662;SDS011;44330;51.360;6.686;2023-03-01T15:54:43;13.02;;;6.72;;
42662;SDS011;44330;51.360;6.686;2023-03-01T15:57:13;10.77;;;6.35;;
42662;SDS011;44330;51.360;6.686;2023-03-01T16:02:09;15.52;;;6.80;;
42662;SDS011;44330;51.360;6.686;2023-03-01T16:04:37;16.33;;;6.32;;
42662;SDS011;44330;51.360;6.686;2023-03-01T16:07:03;16.80;;;7.80;;
42662;SDS011;44330;51.360;6.686;2023-03-01T16:09:29;13.55;;;6.47;;
42662;SDS011;44330;51.360;6.686;2023-03-01T16:11:54;13.50;;;6.55;;
42662;SDS011;44330;51.360;6.686;2023-03-01T16:14:20;19.90;;;10.55;;
42662;SDS011;44330;51.360;6.686;2023-03-01T16:16:46;14.18;;;7.03;;
42662;SDS011;44330;51.360;6.686;2023-03-01T16:19:15;16.15;;;6.43;;
42662;SDS011;44330;51.360;6.686;2023-03-01T16:21:41;18.73;;;6.95;;
42662;SDS011;44330;51.360;6.686;2023-03-01T16:24:11;11.65;;;6.75;;
42662;SDS011;44330;51.360;6.686;2023-03-01T16:26:37;13.00;;;7.40;;
42662;SDS011;44330;51.360;6.686;2023-03-01T16:29:03;19.38;;;7.93;;
42662;SDS011;44330;51.360;6.686;2023-03-01T16:31:29;12.98;;;7.10;;
42662;SDS011;44330;51.360;6.686;2023-03-01T16:33:55;11.23;;;7.25;;
42662;SDS011;44330;51.360;6.686;2023-03-01T16:36:23;12.80;;;6.45;;
42662;SDS011;44330;51.360;6.686;2023-03-01T16:38:50;17.20;;;6.65;;
42662;SDS011;44330;51.360;6.686;2023-03-01T16:41:17;10.27;;;5.88;;
42662;SDS011;44330;51.360;6.686;2023-03-01T16:43:44;14.18;;;6.40;;
42662;SDS011;44330;51.360;6.686;2023-03-01T16:46:15;12.82;;;7.55;;
42662;SDS011;44330;51.360;6.686;2023-03-01T16:48:42;16.52;;;7.00;;
42662;SDS011;44330;51.360;6.686;2023-03-01T16:51:08;15.63;;;6.32;;
42662;SDS011;44330;51.360;6.686;2023-03-01T16:53:34;14.32;;;6.03;;
42662;SDS011;44330;51.360;6.686;2023-03-01T16:56:01;12.23;;;6.60;;
42662;SDS011;44330;51.360;6.686;2023-03-01T16:58:28;15.50;;;6.45;;
42662;SDS011;44330;51.360;6.686;2023-03-01T17:00:54;14.27;;;6.63;;